createdAt,value
2023-02-06T00:01:52.039Z,-1.43
2023-02-06T00:04:20.702Z,-1.43
2023-02-06T00:06:50.357Z,-1.46
2023-02-06T00:09:18.813Z,-1.47
2023-02-06T00:11:49.864Z,-1.50
2023-02-06T00:14:18.308Z,-1.47
2023-02-06T00:16:46.767Z,-1.47
2023-02-06T00:19:15.238Z,-1.40
2023-02-06T00:21:43.932Z,-1.38
2023-02-06T00:24:14.539Z,-1.40
2023-02-06T00:26:43.011Z,-1.48
2023-02-06T00:29:11.442Z,-1.47
2023-02-06T00:31:40.164Z,-1.53
2023-02-06T00:34:08.703Z,-1.62
2023-02-06T00:36:37.157Z,-1.67
2023-02-06T00:39:05.589Z,-1.70
2023-02-06T00:41:36.156Z,-1.71
2023-02-06T00:44:04.586Z,-1.64
2023-02-06T00:46:33.428Z,-1.54
2023-02-06T00:49:01.962Z,-1.52
2023-02-06T00:51:30.593Z,-1.50
2023-02-06T00:54:01.407Z,-1.49
2023-02-06T00:56:29.848Z,-1.46
2023-02-06T00:58:58.305Z,-1.48
2023-02-06T01:01:26.957Z,-1.42
2023-02-06T01:03:55.482Z,-1.37
2023-02-06T01:06:24.118Z,-1.36
2023-02-06T01:08:52.594Z,-1.36
2023-02-06T01:11:24.288Z,-1.32
2023-02-06T01:13:53.049Z,-1.31
2023-02-06T01:16:25.403Z,-1.27
2023-02-06T01:18:53.878Z,-1.26
2023-02-06T01:21:25.747Z,-1.21
2023-02-06T01:23:55.440Z,-1.21
2023-02-06T01:26:27.655Z,-1.27
2023-02-06T01:28:56.585Z,-1.34
2023-02-06T01:35:26.919Z,-1.28
2023-02-06T01:37:55.565Z,-1.31
2023-02-06T01:40:23.918Z,-1.30
2023-02-06T01:42:52.577Z,-1.33
2023-02-06T01:45:26.978Z,-1.34
2023-02-06T01:48:07.391Z,-1.39
2023-02-06T01:50:38.386Z,-1.43
2023-02-06T01:53:07.875Z,-1.46
2023-02-06T01:55:38.807Z,-1.42
2023-02-06T01:58:09.211Z,-1.42
2023-02-06T02:00:38.055Z,-1.43
2023-02-06T02:03:07.493Z,-1.44
2023-02-06T02:05:36.623Z,-1.53
2023-02-06T02:08:17.470Z,-1.68
2023-02-06T02:10:46.257Z,-1.78
2023-02-06T02:13:14.941Z,-1.82
2023-02-06T02:15:50.569Z,-1.86
2023-02-06T02:18:31.672Z,-1.90
2023-02-06T02:21:51.644Z,-1.95
2023-02-06T02:24:39.119Z,-1.90
2023-02-06T02:27:28.551Z,-1.78
2023-02-06T02:30:03.278Z,-1.70
2023-02-06T02:33:27.537Z,-1.60
2023-02-06T02:36:31.035Z,-1.53
2023-02-06T02:40:01.619Z,-1.51
2023-02-06T02:42:44.846Z,-1.55
2023-02-06T02:45:27.011Z,-1.62
2023-02-06T02:48:22.430Z,-1.62
2023-02-06T02:50:51.854Z,-1.67
2023-02-06T02:53:20.577Z,-1.69
2023-02-06T02:55:49.230Z,-1.68
2023-02-06T02:58:23.776Z,-1.69
2023-02-06T03:01:00.348Z,-1.69
2023-02-06T03:03:31.476Z,-1.67
2023-02-06T03:06:49.892Z,-1.73
2023-02-06T03:10:00.065Z,-1.77
2023-02-06T03:12:41.436Z,-1.75
2023-02-06T03:15:43.144Z,-1.75
2023-02-06T03:18:21.323Z,-1.71
2023-02-06T03:20:50.125Z,-1.70
2023-02-06T03:23:28.922Z,-1.67
2023-02-06T03:26:02.656Z,-1.62
2023-02-06T03:28:39.028Z,-1.61
2023-02-06T03:31:15.907Z,-1.60
2023-02-06T03:34:00.996Z,-1.58
2023-02-06T03:36:29.942Z,-1.57
2023-02-06T03:38:58.353Z,-1.57
2023-02-06T03:41:33.741Z,-1.54
2023-02-06T03:44:04.920Z,-1.49
2023-02-06T03:46:35.262Z,-1.46
2023-02-06T03:49:08.679Z,-1.38
2023-02-06T03:52:01.565Z,-1.31
2023-02-06T03:54:31.552Z,-1.20
2023-02-06T03:57:04.615Z,-1.12
2023-02-06T03:59:33.317Z,-1.04
2023-02-06T04:02:04.354Z,-0.98
2023-02-06T04:04:38.248Z,-0.93
2023-02-06T04:07:19.113Z,-0.92
2023-02-06T04:09:47.818Z,-0.90
2023-02-06T04:12:16.677Z,-0.81
2023-02-06T04:14:45.918Z,-0.74
2023-02-06T04:17:23.767Z,-0.62
2023-02-06T04:20:00.237Z,-0.56
2023-02-06T04:22:29.053Z,-0.52
2023-02-06T04:24:57.665Z,-0.49
2023-02-06T04:27:26.911Z,-0.41
2023-02-06T04:29:55.508Z,-0.39
2023-02-06T04:32:24.232Z,-0.33
2023-02-06T04:34:52.823Z,-0.34
2023-02-06T04:37:21.367Z,-0.41
2023-02-06T04:39:50.141Z,-0.46
2023-02-06T04:42:18.759Z,-0.47
2023-02-06T04:44:47.399Z,-0.48
2023-02-06T04:47:16.065Z,-0.44
2023-02-06T04:49:44.626Z,-0.43
2023-02-06T04:52:13.322Z,-0.34
2023-02-06T04:54:41.888Z,-0.27
2023-02-06T04:57:10.543Z,-0.24
2023-02-06T04:59:39.224Z,-0.18
2023-02-06T05:02:07.828Z,-0.17
2023-02-06T05:04:36.475Z,-0.15
2023-02-06T05:07:05.603Z,-0.11
2023-02-06T05:09:34.439Z,-0.07
2023-02-06T05:12:03.045Z,-0.04
2023-02-06T05:14:31.848Z,-0.07
2023-02-06T05:17:00.564Z,-0.04
2023-02-06T05:19:29.377Z,-0.05
2023-02-06T05:21:57.970Z,-0.06
2023-02-06T05:24:26.573Z,-0.05
2023-02-06T05:26:57.944Z,-0.04
2023-02-06T05:29:27.574Z,-0.01
2023-02-06T05:31:56.212Z,-0.01
2023-02-06T05:34:24.875Z,-0.02
2023-02-06T05:36:53.609Z,0.03
2023-02-06T05:39:22.380Z,0.08
2023-02-06T05:41:51.127Z,0.12
2023-02-06T05:44:20.110Z,0.16
2023-02-06T05:46:49.455Z,0.17
2023-02-06T05:49:17.928Z,0.19
2023-02-06T05:51:46.376Z,0.24
2023-02-06T05:54:17.099Z,0.26
2023-02-06T05:56:45.906Z,0.27
2023-02-06T05:59:14.546Z,0.22
2023-02-06T06:01:43.202Z,0.31
2023-02-06T06:04:11.915Z,0.33
2023-02-06T06:06:40.470Z,0.30
2023-02-06T06:09:09.268Z,0.34
2023-02-06T06:11:38.053Z,0.34
2023-02-06T06:14:07.026Z,0.37
2023-02-06T06:16:35.907Z,0.37
2023-02-06T06:19:05.052Z,0.42
2023-02-06T06:21:34.019Z,0.45
2023-02-06T06:24:03.604Z,0.45
2023-02-06T06:26:32.374Z,0.45
2023-02-06T06:29:00.962Z,0.49
2023-02-06T06:31:29.607Z,0.51
2023-02-06T06:33:58.205Z,0.55
2023-02-06T06:36:26.804Z,0.57
2023-02-06T06:38:55.563Z,0.58
2023-02-06T06:41:24.170Z,0.58
2023-02-06T06:43:52.856Z,0.57
2023-02-06T06:46:21.477Z,0.59
2023-02-06T06:48:53.025Z,0.61
2023-02-06T06:51:21.697Z,0.63
2023-02-06T06:53:50.456Z,0.66
2023-02-06T06:56:19.008Z,0.66
2023-02-06T06:58:47.758Z,0.68
2023-02-06T07:01:16.474Z,0.70
2023-02-06T07:03:47.095Z,0.70
2023-02-06T07:06:16.129Z,0.72
2023-02-06T07:08:44.738Z,0.66
2023-02-06T07:11:15.847Z,0.67
2023-02-06T07:13:44.683Z,0.69
2023-02-06T07:16:13.881Z,0.77
2023-02-06T07:18:43.147Z,0.84
2023-02-06T07:21:14.207Z,0.86
2023-02-06T07:23:43.010Z,0.85
2023-02-06T07:26:12.325Z,0.86
2023-02-06T07:28:41.511Z,0.88
2023-02-06T07:31:10.847Z,0.92
2023-02-06T07:33:39.460Z,0.96
2023-02-06T07:36:12.617Z,0.95
2023-02-06T07:38:41.430Z,1.03
2023-02-06T07:41:12.590Z,1.08
2023-02-06T07:43:41.385Z,1.11
2023-02-06T07:46:10.083Z,1.15
2023-02-06T07:48:38.665Z,1.17
2023-02-06T07:51:09.844Z,1.17
2023-02-06T07:53:39.153Z,1.21
2023-02-06T07:56:17.008Z,1.22
2023-02-06T07:58:47.540Z,1.16
2023-02-06T08:01:16.341Z,1.12
2023-02-06T08:03:46.185Z,1.13
2023-02-06T08:06:17.330Z,1.15
2023-02-06T08:08:46.511Z,1.16
2023-02-06T08:11:20.885Z,1.23
2023-02-06T08:13:50.026Z,1.24
2023-02-06T08:16:21.982Z,1.29
2023-02-06T08:18:50.977Z,1.33
2023-02-06T08:21:23.720Z,1.30
2023-02-06T08:24:01.035Z,1.34
2023-02-06T08:26:31.863Z,1.35
2023-02-06T08:29:05.113Z,1.39
2023-02-06T08:31:38.789Z,1.43
2023-02-06T08:34:08.960Z,1.47
2023-02-06T08:36:38.004Z,1.50
2023-02-06T08:39:06.748Z,1.52
2023-02-06T08:41:40.739Z,1.53
2023-02-06T08:44:14.501Z,1.52
2023-02-06T08:46:43.977Z,1.57
2023-02-06T08:49:18.774Z,1.63
2023-02-06T08:51:49.375Z,1.68
2023-02-06T08:54:21.557Z,1.70
2023-02-06T08:56:51.585Z,1.74
2023-02-06T08:59:21.502Z,1.73
2023-02-06T09:01:52.251Z,1.78
2023-02-06T09:04:21.038Z,1.84
2023-02-06T09:06:50.265Z,1.85
2023-02-06T09:09:19.603Z,1.69
2023-02-06T09:11:48.294Z,1.77
2023-02-06T09:14:20.416Z,1.79
2023-02-06T09:16:49.070Z,1.76
2023-02-06T09:19:17.655Z,1.76
2023-02-06T09:21:46.301Z,1.85
2023-02-06T09:24:14.892Z,1.89
2023-02-06T09:26:58.543Z,1.93
2023-02-06T09:29:31.958Z,1.99
2023-02-06T09:32:01.429Z,2.02
2023-02-06T09:34:30.517Z,2.02
2023-02-06T09:36:59.405Z,2.03
2023-02-06T09:39:29.074Z,2.11
2023-02-06T09:42:07.217Z,2.18
2023-02-06T09:44:49.408Z,2.24
2023-02-06T09:47:51.305Z,2.30
2023-02-06T09:50:40.865Z,2.32
2023-02-06T09:53:31.516Z,2.42
2023-02-06T09:56:34.426Z,2.41
2023-02-06T09:59:25.479Z,2.42
2023-02-06T10:02:24.468Z,2.41
2023-02-06T10:05:15.824Z,2.42
2023-02-06T10:08:16.684Z,2.48
2023-02-06T10:10:58.243Z,2.40
2023-02-06T10:13:26.925Z,2.41
2023-02-06T10:16:05.819Z,2.33
2023-02-06T10:18:41.619Z,2.39
2023-02-06T10:21:34.809Z,2.35
2023-02-06T10:24:12.526Z,2.27
2023-02-06T10:26:42.737Z,2.27
2023-02-06T10:29:24.602Z,2.24
2023-02-06T10:31:56.081Z,2.19
2023-02-06T10:34:42.510Z,2.19
2023-02-06T10:37:28.905Z,2.16
2023-02-06T10:40:48.267Z,1.89
2023-02-06T10:43:16.911Z,1.96
2023-02-06T10:45:45.490Z,2.05
2023-02-06T10:48:44.586Z,1.97
2023-02-06T10:51:33.099Z,1.98
2023-02-06T10:54:13.553Z,2.05
2023-02-06T10:56:45.940Z,2.03
2023-02-06T10:59:40.529Z,2.05
2023-02-06T11:02:12.958Z,2.11
2023-02-06T11:04:52.276Z,2.09
2023-02-06T11:07:35.063Z,2.09
2023-02-06T11:10:03.721Z,2.13
2023-02-06T11:12:40.430Z,2.10
2023-02-06T11:15:38.963Z,2.18
2023-02-06T11:18:12.826Z,2.23
2023-02-06T11:20:45.089Z,2.25
2023-02-06T11:23:24.075Z,2.30
2023-02-06T11:26:19.687Z,2.28
2023-02-06T11:28:55.256Z,2.13
2023-02-06T11:31:45.651Z,2.06
2023-02-06T11:34:37.132Z,2.08
2023-02-06T11:37:36.412Z,2.08
2023-02-06T11:40:19.989Z,2.01
2023-02-06T11:42:52.692Z,1.96
2023-02-06T11:45:33.149Z,1.96
2023-02-06T11:48:02.570Z,2.07
2023-02-06T11:50:38.659Z,2.03
2023-02-06T11:53:19.446Z,2.09
2023-02-06T11:56:00.948Z,2.02
2023-02-06T11:58:30.873Z,1.98
2023-02-06T12:01:09.653Z,1.91
2023-02-06T12:03:51.611Z,1.88
2023-02-06T12:06:40.573Z,1.93
2023-02-06T12:09:14.210Z,1.85
2023-02-06T12:12:16.464Z,1.85
2023-02-06T12:15:45.559Z,1.90
2023-02-06T12:18:28.784Z,1.91
2023-02-06T12:21:18.180Z,1.98
2023-02-06T12:24:02.995Z,2.02
2023-02-06T12:26:35.355Z,2.07
2023-02-06T12:29:20.068Z,2.08
2023-02-06T12:31:54.104Z,2.13
2023-02-06T12:34:31.465Z,2.10
2023-02-06T12:37:20.817Z,2.13
2023-02-06T12:39:50.532Z,2.08
2023-02-06T12:42:59.563Z,2.05
2023-02-06T12:45:40.857Z,2.03
2023-02-06T12:48:23.103Z,1.99
2023-02-06T12:51:22.128Z,2.01
2023-02-06T12:54:04.996Z,2.03
2023-02-06T12:56:41.421Z,2.01
2023-02-06T13:00:02.717Z,1.99
2023-02-06T13:03:14.167Z,2.05
2023-02-06T13:05:49.715Z,1.91
2023-02-06T13:08:30.364Z,1.92
2023-02-06T13:11:09.761Z,1.98
2023-02-06T13:13:41.731Z,2.03
2023-02-06T13:16:10.802Z,1.99
2023-02-06T13:18:47.188Z,2.00
2023-02-06T13:21:25.414Z,2.03
2023-02-06T13:24:02.925Z,2.05
2023-02-06T13:26:51.614Z,2.05
2023-02-06T13:29:28.189Z,1.96
2023-02-06T13:32:15.286Z,2.00
2023-02-06T13:35:08.653Z,1.99
2023-02-06T13:37:40.276Z,2.01
2023-02-06T13:40:26.799Z,1.85
2023-02-06T13:43:14.861Z,1.90
2023-02-06T13:46:00.581Z,1.86
2023-02-06T13:49:00.184Z,1.94
2023-02-06T13:51:55.922Z,1.96
2023-02-06T13:55:34.591Z,1.90
2023-02-06T13:58:40.990Z,1.86
2023-02-06T14:01:23.189Z,1.88
2023-02-06T14:03:54.200Z,1.79
2023-02-06T14:06:56.747Z,1.79
2023-02-06T14:10:05.255Z,1.83
2023-02-06T14:13:08.251Z,1.84
2023-02-06T14:16:20.058Z,1.76
2023-02-06T14:19:04.452Z,1.76
2023-02-06T14:21:53.979Z,1.83
2023-02-06T14:25:04.190Z,1.72
2023-02-06T14:28:08.489Z,1.73
2023-02-06T14:30:51.131Z,1.64
2023-02-06T14:33:19.821Z,1.47
2023-02-06T14:36:22.288Z,1.59
2023-02-06T14:39:09.768Z,1.56
2023-02-06T14:41:39.745Z,1.43
2023-02-06T14:44:25.619Z,1.35
2023-02-06T14:46:54.480Z,1.27
2023-02-06T14:49:35.583Z,1.23
2023-02-06T14:52:05.965Z,1.22
2023-02-06T14:54:38.434Z,1.07
2023-02-06T14:57:24.159Z,0.98
2023-02-06T15:00:07.828Z,1.04
2023-02-06T15:02:38.757Z,1.03
2023-02-06T15:05:07.768Z,0.96
2023-02-06T15:07:39.745Z,0.92
2023-02-06T15:10:18.338Z,0.94
2023-02-06T15:12:54.906Z,0.95
2023-02-06T15:15:33.389Z,0.93
2023-02-06T15:18:19.309Z,1.03
2023-02-06T15:21:03.237Z,0.88
2023-02-06T15:24:05.927Z,0.89
2023-02-06T15:26:49.191Z,0.86
2023-02-06T15:29:24.035Z,0.94
2023-02-06T15:31:56.411Z,0.85
2023-02-06T15:34:26.513Z,0.83
2023-02-06T15:36:55.297Z,0.90
2023-02-06T15:39:24.096Z,0.91
2023-02-06T15:41:54.177Z,0.86
2023-02-06T15:44:38.621Z,0.77
2023-02-06T15:47:14.433Z,0.82
2023-02-06T15:49:46.362Z,0.77
2023-02-06T15:52:32.664Z,0.89
2023-02-06T15:55:02.359Z,0.66
2023-02-06T15:57:42.423Z,0.68
2023-02-06T16:00:27.499Z,0.66
2023-02-06T16:03:03.891Z,0.62
2023-02-06T16:05:41.578Z,0.60
2023-02-06T16:08:21.955Z,0.65
2023-02-06T16:10:55.139Z,0.67
2023-02-06T16:13:28.048Z,0.73
2023-02-06T16:16:19.696Z,0.71
2023-02-06T16:18:52.037Z,0.68
2023-02-06T16:21:20.678Z,0.57
2023-02-06T16:24:17.779Z,0.60
2023-02-06T16:26:52.410Z,0.67
2023-02-06T16:29:33.072Z,0.67
2023-02-06T16:32:10.245Z,0.65
2023-02-06T16:34:46.103Z,0.69
2023-02-06T16:37:30.399Z,0.74
2023-02-06T16:39:59.056Z,0.71
2023-02-06T16:42:35.546Z,0.71
2023-02-06T16:45:28.338Z,0.71
2023-02-06T16:47:57.215Z,0.77
2023-02-06T16:50:25.903Z,0.69
2023-02-06T16:53:04.714Z,0.73
2023-02-06T16:55:33.197Z,0.69
2023-02-06T16:58:02.831Z,0.60
2023-02-06T17:00:33.353Z,0.67
2023-02-06T17:03:02.109Z,0.58
2023-02-06T17:05:31.651Z,0.56
2023-02-06T17:08:01.776Z,0.48
2023-02-06T17:10:30.509Z,0.59
2023-02-06T17:12:59.257Z,0.51
2023-02-06T17:15:29.249Z,0.52
2023-02-06T17:17:57.928Z,0.53
2023-02-06T17:20:27.128Z,0.46
2023-02-06T17:22:55.745Z,0.47
2023-02-06T17:25:24.355Z,0.43
2023-02-06T17:27:53.805Z,0.29
2023-02-06T17:30:25.909Z,0.35
2023-02-06T17:32:54.801Z,0.32
2023-02-06T17:35:24.531Z,0.28
2023-02-06T17:37:54.091Z,0.33
2023-02-06T17:40:32.586Z,0.36
2023-02-06T17:43:04.068Z,0.24
2023-02-06T17:45:33.706Z,0.09
2023-02-06T17:48:02.811Z,0.05
2023-02-06T17:50:31.871Z,-0.01
2023-02-06T17:53:00.734Z,-0.05
2023-02-06T17:55:29.726Z,-0.07
2023-02-06T17:57:58.775Z,-0.18
2023-02-06T18:00:27.833Z,-0.25
2023-02-06T18:03:00.058Z,-0.11
2023-02-06T18:05:29.335Z,-0.18
2023-02-06T18:07:58.040Z,-0.28
2023-02-06T18:10:27.604Z,-0.24
2023-02-06T18:12:56.465Z,-0.28
2023-02-06T18:15:25.108Z,-0.25
2023-02-06T18:17:54.990Z,-0.31
2023-02-06T18:20:23.527Z,-0.32
2023-02-06T18:22:52.585Z,-0.42
2023-02-06T18:25:21.549Z,-0.47
2023-02-06T18:27:50.270Z,-0.49
2023-02-06T18:30:18.925Z,-0.59
2023-02-06T18:32:47.536Z,-0.68
2023-02-06T18:35:16.490Z,-0.71
2023-02-06T18:37:45.203Z,-0.78
2023-02-06T18:40:14.080Z,-0.72
2023-02-06T18:42:51.052Z,-0.69
2023-02-06T18:45:21.901Z,-0.70
2023-02-06T18:47:52.210Z,-0.67
2023-02-06T18:50:22.261Z,-0.72
2023-02-06T18:52:51.994Z,-0.69
2023-02-06T18:55:21.104Z,-0.77
2023-02-06T18:57:49.639Z,-0.74
2023-02-06T19:00:21.167Z,-0.78
2023-02-06T19:02:50.298Z,-0.92
2023-02-06T19:05:19.247Z,-0.90
2023-02-06T19:07:52.713Z,-0.98
2023-02-06T19:10:22.539Z,-0.95
2023-02-06T19:12:51.132Z,-0.93
2023-02-06T19:15:19.935Z,-0.92
2023-02-06T19:17:49.585Z,-0.96
2023-02-06T19:20:18.702Z,-0.96
2023-02-06T19:22:47.375Z,-1.07
2023-02-06T19:25:16.065Z,-1.12
2023-02-06T19:27:44.850Z,-1.07
2023-02-06T19:30:14.342Z,-1.10
2023-02-06T19:32:43.482Z,-1.10
2023-02-06T19:35:13.143Z,-1.06
2023-02-06T19:37:42.163Z,-1.13
2023-02-06T19:40:11.289Z,-1.07
2023-02-06T19:42:41.118Z,-1.10
2023-02-06T19:45:09.794Z,-1.22
2023-02-06T19:47:38.412Z,-1.25
2023-02-06T19:50:07.555Z,-1.29
2023-02-06T19:52:36.181Z,-1.23
2023-02-06T19:55:05.410Z,-1.34
2023-02-06T19:57:34.153Z,-1.30
2023-02-06T20:00:04.454Z,-1.38
2023-02-06T20:02:33.087Z,-1.35
2023-02-06T20:05:02.726Z,-1.31
2023-02-06T20:07:32.117Z,-1.36
2023-02-06T20:10:00.790Z,-1.33
2023-02-06T20:12:29.433Z,-1.41
2023-02-06T20:14:58.035Z,-1.44
2023-02-06T20:17:27.002Z,-1.41
2023-02-06T20:19:55.972Z,-1.41
2023-02-06T20:22:24.336Z,-1.38
2023-02-06T20:24:52.908Z,-1.38
2023-02-06T20:27:21.554Z,-1.32
2023-02-06T20:29:50.183Z,-1.28
2023-02-06T20:32:19.532Z,-1.36
2023-02-06T20:34:48.625Z,-1.33
2023-02-06T20:37:18.033Z,-1.30
2023-02-06T20:39:46.651Z,-1.31
2023-02-06T20:42:15.536Z,-1.31
2023-02-06T20:44:44.153Z,-1.38
2023-02-06T20:47:12.476Z,-1.42
2023-02-06T20:49:41.967Z,-1.41
2023-02-06T20:52:10.201Z,-1.40
2023-02-06T20:54:38.957Z,-1.44
2023-02-06T20:57:07.892Z,-1.38
2023-02-06T20:59:36.547Z,-1.31
2023-02-06T21:02:05.200Z,-1.38
2023-02-06T21:04:34.498Z,-1.34
2023-02-06T21:07:03.163Z,-1.35
2023-02-06T21:09:32.104Z,-1.34
2023-02-06T21:12:00.781Z,-1.28
2023-02-06T21:14:30.176Z,-1.28
2023-02-06T21:16:58.940Z,-1.26
2023-02-06T21:19:29.249Z,-1.29
2023-02-06T21:21:58.132Z,-1.30
2023-02-06T21:24:26.715Z,-1.32
2023-02-06T21:26:55.612Z,-1.34
2023-02-06T21:29:24.233Z,-1.37
2023-02-06T21:32:07.206Z,-1.44
2023-02-06T21:34:41.288Z,-1.37
2023-02-06T21:37:10.264Z,-1.41
2023-02-06T21:39:41.090Z,-1.33
2023-02-06T21:42:11.681Z,-1.49
2023-02-06T21:44:40.728Z,-1.59
2023-02-06T21:47:10.180Z,-1.63
2023-02-06T21:49:38.940Z,-1.67
2023-02-06T21:52:07.752Z,-1.65
2023-02-06T21:54:36.662Z,-1.67
2023-02-06T21:57:05.258Z,-1.80
2023-02-06T21:59:34.232Z,-1.83
2023-02-06T22:02:03.019Z,-1.85
2023-02-06T22:04:31.651Z,-1.87
2023-02-06T22:07:00.264Z,-1.85
2023-02-06T22:09:28.969Z,-1.82
2023-02-06T22:11:58.331Z,-1.79
2023-02-06T22:14:27.013Z,-1.75
2023-02-06T22:16:55.698Z,-1.81
2023-02-06T22:19:24.332Z,-1.84
2023-02-06T22:21:53.080Z,-1.95
2023-02-06T22:24:22.005Z,-1.93
2023-02-06T22:26:50.407Z,-1.98
2023-02-06T22:29:19.460Z,-1.96
2023-02-06T22:31:48.426Z,-1.98
2023-02-06T22:34:20.877Z,-2.05
2023-02-06T22:36:52.512Z,-2.02
2023-02-06T22:39:21.233Z,-2.02
2023-02-06T22:41:50.294Z,-2.01
2023-02-06T22:44:20.549Z,-2.01
2023-02-06T22:46:52.287Z,-2.04
2023-02-06T22:49:22.380Z,-2.00
2023-02-06T22:51:50.859Z,-2.00
2023-02-06T22:54:19.314Z,-1.98
2023-02-06T22:56:47.747Z,-1.96
2023-02-06T22:59:27.842Z,-1.83
2023-02-06T23:01:59.264Z,-1.75
2023-02-06T23:04:34.624Z,-1.72
2023-02-06T23:07:16.144Z,-1.64
2023-02-06T23:09:44.652Z,-1.64
2023-02-06T23:12:13.798Z,-1.68
2023-02-06T23:14:42.247Z,-1.72
2023-02-06T23:17:10.770Z,-1.71
2023-02-06T23:19:40.897Z,-1.66
2023-02-06T23:22:10.636Z,-1.65
2023-02-06T23:24:39.027Z,-1.67
2023-02-06T23:27:07.494Z,-1.76
2023-02-06T23:29:35.948Z,-1.84
2023-02-06T23:32:04.340Z,-1.96
2023-02-06T23:34:32.795Z,-1.94
2023-02-06T23:37:01.215Z,-1.86
2023-02-06T23:39:29.666Z,-1.76
2023-02-06T23:41:58.151Z,-1.70
2023-02-06T23:44:26.577Z,-1.75
2023-02-06T23:46:55.103Z,-1.82
2023-02-06T23:49:23.509Z,-1.86
2023-02-06T23:51:51.941Z,-2.00
2023-02-06T23:54:20.373Z,-2.08
2023-02-06T23:56:58.003Z,-2.11
2023-02-06T23:59:26.466Z,-2.14
